Terminal Aerodrome Forecast
Issued by NWS

Home | Current Version | Previous Version | Text Only | Print | Product List | Glossary On
Versions: 1 2 3 4 5 6 7 8 9 10 11 12 13 14
000
FTUS44 KJAN 251100
TAFGTR
TAF
KGTR 251124Z 2512/2612 20008KT P6SM SKC
     FM251900 24013G28KT P6SM VCSH BKN050
     FM260100 28010KT P6SM BKN035
     FM260700 32010KT P6SM BKN035=

USA.gov is the U.S. government's official web portal to all federal, state and local government web resources and services.